sensor_id;sensor_type;location;lat;lon;timestamp;temperature;humidity
33988;DHT22;37428;53.580;-1.666;2023-07-29T00:00:02;16.50;81.40
33988;DHT22;37428;53.580;-1.666;2023-07-29T00:03:13;16.50;81.30
33988;DHT22;37428;53.580;-1.666;2023-07-29T00:06:32;16.40;81.70
33988;DHT22;37428;53.580;-1.666;2023-07-29T00:09:34;16.50;81.60
33988;DHT22;37428;53.580;-1.666;2023-07-29T00:12:36;16.50;81.60
33988;DHT22;37428;53.580;-1.666;2023-07-29T00:15:47;16.50;81.50
33988;DHT22;37428;53.580;-1.666;2023-07-29T00:18:50;16.50;81.80
33988;DHT22;37428;53.580;-1.666;2023-07-29T00:21:52;16.50;81.20
33988;DHT22;37428;53.580;-1.666;2023-07-29T00:24:54;16.50;81.40
33988;DHT22;37428;53.580;-1.666;2023-07-29T00:28:12;16.50;81.60
33988;DHT22;37428;53.580;-1.666;2023-07-29T00:31:15;16.50;81.90
33988;DHT22;37428;53.580;-1.666;2023-07-29T00:34:19;16.40;81.40
33988;DHT22;37428;53.580;-1.666;2023-07-29T00:38:06;16.40;81.10
33988;DHT22;37428;53.580;-1.666;2023-07-29T00:41:05;16.30;81.00
33988;DHT22;37428;53.580;-1.666;2023-07-29T00:44:09;16.30;81.30
33988;DHT22;37428;53.580;-1.666;2023-07-29T00:47:13;16.30;81.10
33988;DHT22;37428;53.580;-1.666;2023-07-29T00:50:17;16.20;81.30
33988;DHT22;37428;53.580;-1.666;2023-07-29T00:53:19;16.20;81.10
33988;DHT22;37428;53.580;-1.666;2023-07-29T00:56:21;16.20;81.20
33988;DHT22;37428;53.580;-1.666;2023-07-29T00:59:29;16.20;81.20
33988;DHT22;37428;53.580;-1.666;2023-07-29T01:02:36;16.20;81.30
33988;DHT22;37428;53.580;-1.666;2023-07-29T01:05:49;16.20;80.90
33988;DHT22;37428;53.580;-1.666;2023-07-29T01:08:58;16.10;80.80
33988;DHT22;37428;53.580;-1.666;2023-07-29T01:12:16;16.10;81.00
33988;DHT22;37428;53.580;-1.666;2023-07-29T01:15:24;16.10;80.90
33988;DHT22;37428;53.580;-1.666;2023-07-29T01:18:31;16.10;80.90
33988;DHT22;37428;53.580;-1.666;2023-07-29T01:21:35;16.10;81.10
33988;DHT22;37428;53.580;-1.666;2023-07-29T01:24:41;16.00;81.30
33988;DHT22;37428;53.580;-1.666;2023-07-29T01:27:44;15.90;81.50
33988;DHT22;37428;53.580;-1.666;2023-07-29T01:30:58;15.90;81.90
33988;DHT22;37428;53.580;-1.666;2023-07-29T01:34:08;15.90;81.70
33988;DHT22;37428;53.580;-1.666;2023-07-29T01:37:18;15.90;82.00
33988;DHT22;37428;53.580;-1.666;2023-07-29T01:40:26;15.90;82.20
33988;DHT22;37428;53.580;-1.666;2023-07-29T01:43:51;15.90;82.00
33988;DHT22;37428;53.580;-1.666;2023-07-29T01:48:39;15.80;81.90
33988;DHT22;37428;53.580;-1.666;2023-07-29T01:50:27;15.80;81.80
33988;DHT22;37428;53.580;-1.666;2023-07-29T01:53:39;15.80;81.90
33988;DHT22;37428;53.580;-1.666;2023-07-29T01:56:43;15.80;81.90
33988;DHT22;37428;53.580;-1.666;2023-07-29T02:00:06;15.80;81.60
33988;DHT22;37428;53.580;-1.666;2023-07-29T02:03:32;15.80;81.80
33988;DHT22;37428;53.580;-1.666;2023-07-29T02:06:42;15.80;82.00
33988;DHT22;37428;53.580;-1.666;2023-07-29T02:09:44;15.80;82.10
33988;DHT22;37428;53.580;-1.666;2023-07-29T02:13:05;15.70;81.80
33988;DHT22;37428;53.580;-1.666;2023-07-29T02:16:13;15.70;82.00
33988;DHT22;37428;53.580;-1.666;2023-07-29T02:19:16;15.70;82.10
33988;DHT22;37428;53.580;-1.666;2023-07-29T02:22:51;15.70;82.60
33988;DHT22;37428;53.580;-1.666;2023-07-29T02:25:44;15.70;82.70
33988;DHT22;37428;53.580;-1.666;2023-07-29T02:28:48;15.70;82.90
33988;DHT22;37428;53.580;-1.666;2023-07-29T02:35:41;15.70;82.50
33988;DHT22;37428;53.580;-1.666;2023-07-29T02:38:47;15.70;82.50
33988;DHT22;37428;53.580;-1.666;2023-07-29T02:41:49;15.60;82.50
33988;DHT22;37428;53.580;-1.666;2023-07-29T02:44:58;15.50;82.60
33988;DHT22;37428;53.580;-1.666;2023-07-29T02:48:14;15.50;82.20
33988;DHT22;37428;53.580;-1.666;2023-07-29T02:51:17;15.50;82.20
33988;DHT22;37428;53.580;-1.666;2023-07-29T02:54:33;15.50;82.20
33988;DHT22;37428;53.580;-1.666;2023-07-29T02:57:35;15.40;82.10
33988;DHT22;37428;53.580;-1.666;2023-07-29T03:00:39;15.40;82.40
33988;DHT22;37428;53.580;-1.666;2023-07-29T03:03:42;15.30;82.10
33988;DHT22;37428;53.580;-1.666;2023-07-29T03:06:44;15.30;81.70
33988;DHT22;37428;53.580;-1.666;2023-07-29T03:10:10;15.20;82.00
33988;DHT22;37428;53.580;-1.666;2023-07-29T03:14:01;15.20;81.80
33988;DHT22;37428;53.580;-1.666;2023-07-29T03:17:21;15.10;82.00
33988;DHT22;37428;53.580;-1.666;2023-07-29T03:20:24;15.20;81.60
33988;DHT22;37428;53.580;-1.666;2023-07-29T03:23:27;15.20;81.60
33988;DHT22;37428;53.580;-1.666;2023-07-29T03:26:47;15.10;81.80
33988;DHT22;37428;53.580;-1.666;2023-07-29T03:29:50;15.00;81.70
33988;DHT22;37428;53.580;-1.666;2023-07-29T03:33:05;15.00;81.40
33988;DHT22;37428;53.580;-1.666;2023-07-29T03:36:07;15.00;82.00
33988;DHT22;37428;53.580;-1.666;2023-07-29T03:39:25;15.00;81.30
33988;DHT22;37428;53.580;-1.666;2023-07-29T03:42:43;15.00;80.70
33988;DHT22;37428;53.580;-1.666;2023-07-29T03:45:57;14.90;81.10
33988;DHT22;37428;53.580;-1.666;2023-07-29T03:49:22;14.90;80.90
33988;DHT22;37428;53.580;-1.666;2023-07-29T03:52:27;14.90;81.10
33988;DHT22;37428;53.580;-1.666;2023-07-29T03:55:29;14.90;81.20
33988;DHT22;37428;53.580;-1.666;2023-07-29T03:58:51;14.90;81.40
33988;DHT22;37428;53.580;-1.666;2023-07-29T04:02:08;14.90;81.30
33988;DHT22;37428;53.580;-1.666;2023-07-29T04:05:24;14.90;81.50
33988;DHT22;37428;53.580;-1.666;2023-07-29T04:09:05;14.90;81.60
33988;DHT22;37428;53.580;-1.666;2023-07-29T04:11:59;14.80;82.10
33988;DHT22;37428;53.580;-1.666;2023-07-29T04:15:01;14.80;82.00
33988;DHT22;37428;53.580;-1.666;2023-07-29T04:18:03;14.80;82.20
33988;DHT22;37428;53.580;-1.666;2023-07-29T04:21:11;14.80;82.10
33988;DHT22;37428;53.580;-1.666;2023-07-29T04:24:15;14.80;82.10
33988;DHT22;37428;53.580;-1.666;2023-07-29T04:27:28;14.80;82.10
33988;DHT22;37428;53.580;-1.666;2023-07-29T04:30:30;14.80;82.40
33988;DHT22;37428;53.580;-1.666;2023-07-29T04:33:34;14.80;82.40
33988;DHT22;37428;53.580;-1.666;2023-07-29T04:37:13;14.70;82.30
33988;DHT22;37428;53.580;-1.666;2023-07-29T04:40:06;14.70;82.20
33988;DHT22;37428;53.580;-1.666;2023-07-29T04:43:09;14.80;82.10
33988;DHT22;37428;53.580;-1.666;2023-07-29T04:46:12;14.80;82.50
33988;DHT22;37428;53.580;-1.666;2023-07-29T04:49:15;14.70;82.60
33988;DHT22;37428;53.580;-1.666;2023-07-29T04:52:30;14.70;82.70
33988;DHT22;37428;53.580;-1.666;2023-07-29T04:55:51;14.70;83.00
33988;DHT22;37428;53.580;-1.666;2023-07-29T05:02:52;14.70;83.40
33988;DHT22;37428;53.580;-1.666;2023-07-29T05:05:56;14.70;83.50
33988;DHT22;37428;53.580;-1.666;2023-07-29T05:09:18;14.70;83.30
33988;DHT22;37428;53.580;-1.666;2023-07-29T05:12:20;14.70;83.40
33988;DHT22;37428;53.580;-1.666;2023-07-29T05:15:47;14.80;83.60
33988;DHT22;37428;53.580;-1.666;2023-07-29T05:18:50;14.70;83.40
33988;DHT22;37428;53.580;-1.666;2023-07-29T05:21:52;14.70;83.50
33988;DHT22;37428;53.580;-1.666;2023-07-29T05:24:57;14.80;83.50
33988;DHT22;37428;53.580;-1.666;2023-07-29T05:28:01;14.90;83.50
33988;DHT22;37428;53.580;-1.666;2023-07-29T05:31:34;14.90;83.20
33988;DHT22;37428;53.580;-1.666;2023-07-29T05:34:41;14.90;83.00
33988;DHT22;37428;53.580;-1.666;2023-07-29T05:37:44;15.00;83.40
33988;DHT22;37428;53.580;-1.666;2023-07-29T05:40:57;15.00;83.60
33988;DHT22;37428;53.580;-1.666;2023-07-29T05:44:32;15.00;83.50
33988;DHT22;37428;53.580;-1.666;2023-07-29T05:47:24;15.10;83.30
33988;DHT22;37428;53.580;-1.666;2023-07-29T05:50:31;15.00;83.20
33988;DHT22;37428;53.580;-1.666;2023-07-29T05:53:59;15.00;83.50
33988;DHT22;37428;53.580;-1.666;2023-07-29T05:57:03;15.00;83.60
33988;DHT22;37428;53.580;-1.666;2023-07-29T06:00:35;15.00;84.00
33988;DHT22;37428;53.580;-1.666;2023-07-29T06:03:49;15.00;83.80
33988;DHT22;37428;53.580;-1.666;2023-07-29T06:07:28;15.10;84.20
33988;DHT22;37428;53.580;-1.666;2023-07-29T06:10:34;15.20;84.10
33988;DHT22;37428;53.580;-1.666;2023-07-29T06:13:40;15.20;83.80
33988;DHT22;37428;53.580;-1.666;2023-07-29T06:17:11;15.30;83.80
33988;DHT22;37428;53.580;-1.666;2023-07-29T06:20:13;15.30;83.60
33988;DHT22;37428;53.580;-1.666;2023-07-29T06:23:15;15.30;83.70
33988;DHT22;37428;53.580;-1.666;2023-07-29T06:26:19;15.30;83.30
33988;DHT22;37428;53.580;-1.666;2023-07-29T06:29:30;15.30;83.50
33988;DHT22;37428;53.580;-1.666;2023-07-29T06:32:53;15.30;83.90
33988;DHT22;37428;53.580;-1.666;2023-07-29T06:36:36;15.40;83.70
33988;DHT22;37428;53.580;-1.666;2023-07-29T06:39:46;15.60;83.10
33988;DHT22;37428;53.580;-1.666;2023-07-29T06:42:48;15.70;82.10
33988;DHT22;37428;53.580;-1.666;2023-07-29T06:45:52;16.00;82.10
33988;DHT22;37428;53.580;-1.666;2023-07-29T06:48:54;16.30;80.90
33988;DHT22;37428;53.580;-1.666;2023-07-29T06:52:02;16.50;79.00
33988;DHT22;37428;53.580;-1.666;2023-07-29T06:55:20;16.70;78.80
33988;DHT22;37428;53.580;-1.666;2023-07-29T06:58:26;17.00;77.40
33988;DHT22;37428;53.580;-1.666;2023-07-29T07:01:31;17.00;76.90
33988;DHT22;37428;53.580;-1.666;2023-07-29T07:04:39;16.90;77.50
33988;DHT22;37428;53.580;-1.666;2023-07-29T07:07:41;16.90;77.00
33988;DHT22;37428;53.580;-1.666;2023-07-29T07:10:44;16.90;77.10
33988;DHT22;37428;53.580;-1.666;2023-07-29T07:13:46;16.90;77.50
33988;DHT22;37428;53.580;-1.666;2023-07-29T07:17:03;16.90;76.60
33988;DHT22;37428;53.580;-1.666;2023-07-29T07:20:36;16.70;75.60
33988;DHT22;37428;53.580;-1.666;2023-07-29T07:23:40;16.70;76.10
33988;DHT22;37428;53.580;-1.666;2023-07-29T07:26:56;16.70;77.10
33988;DHT22;37428;53.580;-1.666;2023-07-29T07:30:14;16.60;77.10
33988;DHT22;37428;53.580;-1.666;2023-07-29T07:33:17;16.80;77.00
33988;DHT22;37428;53.580;-1.666;2023-07-29T07:36:34;16.80;75.80
33988;DHT22;37428;53.580;-1.666;2023-07-29T07:39:36;16.80;75.20
33988;DHT22;37428;53.580;-1.666;2023-07-29T07:42:38;16.80;75.80
33988;DHT22;37428;53.580;-1.666;2023-07-29T07:45:42;16.70;76.30
33988;DHT22;37428;53.580;-1.666;2023-07-29T07:48:46;16.80;76.80
33988;DHT22;37428;53.580;-1.666;2023-07-29T07:51:50;16.70;78.10
33988;DHT22;37428;53.580;-1.666;2023-07-29T07:54:52;16.40;80.40
33988;DHT22;37428;53.580;-1.666;2023-07-29T07:57:56;16.20;82.60
33988;DHT22;37428;53.580;-1.666;2023-07-29T08:01:01;16.00;84.30
33988;DHT22;37428;53.580;-1.666;2023-07-29T08:04:05;15.90;83.30
33988;DHT22;37428;53.580;-1.666;2023-07-29T08:07:09;15.90;84.30
33988;DHT22;37428;53.580;-1.666;2023-07-29T08:13:58;15.90;83.50
33988;DHT22;37428;53.580;-1.666;2023-07-29T08:17:00;15.90;83.00
33988;DHT22;37428;53.580;-1.666;2023-07-29T08:20:09;16.00;83.10
33988;DHT22;37428;53.580;-1.666;2023-07-29T08:23:36;16.10;83.10
33988;DHT22;37428;53.580;-1.666;2023-07-29T08:26:39;16.20;80.90
33988;DHT22;37428;53.580;-1.666;2023-07-29T08:29:41;16.20;80.40
33988;DHT22;37428;53.580;-1.666;2023-07-29T08:32:43;16.40;80.60
33988;DHT22;37428;53.580;-1.666;2023-07-29T08:35:46;16.60;79.60
33988;DHT22;37428;53.580;-1.666;2023-07-29T08:38:49;16.60;78.10
33988;DHT22;37428;53.580;-1.666;2023-07-29T08:41:56;17.10;77.50
33988;DHT22;37428;53.580;-1.666;2023-07-29T08:45:06;17.30;75.60
33988;DHT22;37428;53.580;-1.666;2023-07-29T08:48:10;17.20;75.90
33988;DHT22;37428;53.580;-1.666;2023-07-29T08:51:23;17.60;76.00
33988;DHT22;37428;53.580;-1.666;2023-07-29T08:54:27;17.60;74.70
33988;DHT22;37428;53.580;-1.666;2023-07-29T08:57:30;17.90;73.50
33988;DHT22;37428;53.580;-1.666;2023-07-29T09:00:33;18.00;72.40
33988;DHT22;37428;53.580;-1.666;2023-07-29T09:03:36;18.30;71.60
33988;DHT22;37428;53.580;-1.666;2023-07-29T09:06:43;18.70;71.20
33988;DHT22;37428;53.580;-1.666;2023-07-29T09:09:46;18.90;69.40
33988;DHT22;37428;53.580;-1.666;2023-07-29T09:12:48;19.10;68.00
33988;DHT22;37428;53.580;-1.666;2023-07-29T09:15:54;19.40;66.80
33988;DHT22;37428;53.580;-1.666;2023-07-29T09:19:03;19.70;66.00
33988;DHT22;37428;53.580;-1.666;2023-07-29T09:22:34;19.80;65.10
33988;DHT22;37428;53.580;-1.666;2023-07-29T09:25:36;20.20;64.00
33988;DHT22;37428;53.580;-1.666;2023-07-29T09:28:39;20.40;63.30
33988;DHT22;37428;53.580;-1.666;2023-07-29T09:31:41;20.60;61.70
33988;DHT22;37428;53.580;-1.666;2023-07-29T09:34:43;20.60;62.50
33988;DHT22;37428;53.580;-1.666;2023-07-29T09:37:47;20.60;62.00
33988;DHT22;37428;53.580;-1.666;2023-07-29T09:41:00;20.20;60.40
33988;DHT22;37428;53.580;-1.666;2023-07-29T09:44:13;20.40;61.10
33988;DHT22;37428;53.580;-1.666;2023-07-29T09:47:22;20.80;61.70
33988;DHT22;37428;53.580;-1.666;2023-07-29T09:50:27;20.90;60.70
33988;DHT22;37428;53.580;-1.666;2023-07-29T09:53:46;21.30;59.90
33988;DHT22;37428;53.580;-1.666;2023-07-29T09:56:54;21.30;57.50
33988;DHT22;37428;53.580;-1.666;2023-07-29T09:59:56;21.00;58.00
33988;DHT22;37428;53.580;-1.666;2023-07-29T10:02:59;20.80;58.90
33988;DHT22;37428;53.580;-1.666;2023-07-29T10:06:02;20.40;60.40
33988;DHT22;37428;53.580;-1.666;2023-07-29T10:09:07;20.00;61.60
33988;DHT22;37428;53.580;-1.666;2023-07-29T10:12:12;19.60;67.70
33988;DHT22;37428;53.580;-1.666;2023-07-29T10:15:36;19.20;71.10
33988;DHT22;37428;53.580;-1.666;2023-07-29T10:18:38;18.80;73.30
33988;DHT22;37428;53.580;-1.666;2023-07-29T10:21:48;18.40;74.30
33988;DHT22;37428;53.580;-1.666;2023-07-29T10:25:03;18.20;75.40
33988;DHT22;37428;53.580;-1.666;2023-07-29T10:28:07;18.10;77.10
33988;DHT22;37428;53.580;-1.666;2023-07-29T10:31:10;18.00;77.50
33988;DHT22;37428;53.580;-1.666;2023-07-29T10:34:13;18.10;78.70
33988;DHT22;37428;53.580;-1.666;2023-07-29T10:37:38;18.00;78.10
33988;DHT22;37428;53.580;-1.666;2023-07-29T10:41:05;18.00;76.70
33988;DHT22;37428;53.580;-1.666;2023-07-29T10:47:53;18.20;75.10
33988;DHT22;37428;53.580;-1.666;2023-07-29T10:51:22;18.30;73.40
33988;DHT22;37428;53.580;-1.666;2023-07-29T10:54:26;18.50;73.10
33988;DHT22;37428;53.580;-1.666;2023-07-29T10:57:34;19.10;71.00
33988;DHT22;37428;53.580;-1.666;2023-07-29T11:00:37;19.90;74.30
33988;DHT22;37428;53.580;-1.666;2023-07-29T11:03:40;20.30;63.90
33988;DHT22;37428;53.580;-1.666;2023-07-29T11:07:23;20.50;63.90
33988;DHT22;37428;53.580;-1.666;2023-07-29T11:10:28;20.80;63.00
33988;DHT22;37428;53.580;-1.666;2023-07-29T11:13:45;21.10;60.90
33988;DHT22;37428;53.580;-1.666;2023-07-29T11:17:30;21.50;61.70
33988;DHT22;37428;53.580;-1.666;2023-07-29T11:20:25;21.50;54.90
33988;DHT22;37428;53.580;-1.666;2023-07-29T11:23:32;21.60;53.90
33988;DHT22;37428;53.580;-1.666;2023-07-29T11:26:37;21.80;55.80
33988;DHT22;37428;53.580;-1.666;2023-07-29T11:29:41;22.10;55.90
33988;DHT22;37428;53.580;-1.666;2023-07-29T11:32:44;22.40;53.90
33988;DHT22;37428;53.580;-1.666;2023-07-29T11:35:48;22.50;51.40
33988;DHT22;37428;53.580;-1.666;2023-07-29T11:38:52;22.70;51.50
33988;DHT22;37428;53.580;-1.666;2023-07-29T11:41:56;22.30;49.10
33988;DHT22;37428;53.580;-1.666;2023-07-29T11:44:59;21.80;50.60
33988;DHT22;37428;53.580;-1.666;2023-07-29T11:48:04;22.00;48.70
33988;DHT22;37428;53.580;-1.666;2023-07-29T11:51:08;22.40;49.90
33988;DHT22;37428;53.580;-1.666;2023-07-29T11:54:12;22.70;49.80
33988;DHT22;37428;53.580;-1.666;2023-07-29T11:57:14;22.90;47.30
33988;DHT22;37428;53.580;-1.666;2023-07-29T12:00:21;23.00;48.20
33988;DHT22;37428;53.580;-1.666;2023-07-29T12:03:23;23.30;49.60
33988;DHT22;37428;53.580;-1.666;2023-07-29T12:06:26;23.50;45.30
33988;DHT22;37428;53.580;-1.666;2023-07-29T12:09:32;23.70;45.60
33988;DHT22;37428;53.580;-1.666;2023-07-29T12:12:54;23.70;44.30
33988;DHT22;37428;53.580;-1.666;2023-07-29T12:16:02;23.50;44.10
33988;DHT22;37428;53.580;-1.666;2023-07-29T12:19:05;23.70;46.30
33988;DHT22;37428;53.580;-1.666;2023-07-29T12:22:22;23.90;46.00
33988;DHT22;37428;53.580;-1.666;2023-07-29T12:25:28;24.00;45.20
33988;DHT22;37428;53.580;-1.666;2023-07-29T12:28:32;23.70;45.50
33988;DHT22;37428;53.580;-1.666;2023-07-29T12:31:37;23.80;44.00
33988;DHT22;37428;53.580;-1.666;2023-07-29T12:34:39;23.90;45.10
33988;DHT22;37428;53.580;-1.666;2023-07-29T12:37:43;23.90;43.20
33988;DHT22;37428;53.580;-1.666;2023-07-29T12:40:47;23.80;42.90
33988;DHT22;37428;53.580;-1.666;2023-07-29T12:43:54;24.00;43.10
33988;DHT22;37428;53.580;-1.666;2023-07-29T12:47:02;24.10;44.70
33988;DHT22;37428;53.580;-1.666;2023-07-29T12:50:05;24.20;43.90
33988;DHT22;37428;53.580;-1.666;2023-07-29T12:53:09;24.10;41.90
33988;DHT22;37428;53.580;-1.666;2023-07-29T12:56:14;24.10;42.60
33988;DHT22;37428;53.580;-1.666;2023-07-29T12:59:17;24.50;43.10
33988;DHT22;37428;53.580;-1.666;2023-07-29T13:02:23;24.30;42.50
33988;DHT22;37428;53.580;-1.666;2023-07-29T13:05:25;24.50;43.80
33988;DHT22;37428;53.580;-1.666;2023-07-29T13:08:30;24.80;44.00
33988;DHT22;37428;53.580;-1.666;2023-07-29T13:11:32;24.60;42.00
33988;DHT22;37428;53.580;-1.666;2023-07-29T13:14:37;24.90;42.70
33988;DHT22;37428;53.580;-1.666;2023-07-29T13:17:40;25.00;41.50
33988;DHT22;37428;53.580;-1.666;2023-07-29T13:21:06;24.90;42.20
33988;DHT22;37428;53.580;-1.666;2023-07-29T13:24:09;24.90;43.00
33988;DHT22;37428;53.580;-1.666;2023-07-29T13:27:11;25.00;40.50
33988;DHT22;37428;53.580;-1.666;2023-07-29T13:30:28;24.80;40.50
33988;DHT22;37428;53.580;-1.666;2023-07-29T13:33:33;24.50;39.80
33988;DHT22;37428;53.580;-1.666;2023-07-29T13:36:35;24.40;42.10
33988;DHT22;37428;53.580;-1.666;2023-07-29T13:39:37;24.20;40.70
33988;DHT22;37428;53.580;-1.666;2023-07-29T13:42:39;24.50;41.20
33988;DHT22;37428;53.580;-1.666;2023-07-29T13:45:41;24.80;41.00
33988;DHT22;37428;53.580;-1.666;2023-07-29T13:48:45;25.00;39.90
33988;DHT22;37428;53.580;-1.666;2023-07-29T13:51:47;25.20;41.10
33988;DHT22;37428;53.580;-1.666;2023-07-29T13:54:49;25.50;40.00
33988;DHT22;37428;53.580;-1.666;2023-07-29T13:57:52;25.50;39.80
33988;DHT22;37428;53.580;-1.666;2023-07-29T14:01:09;25.50;39.50
33988;DHT22;37428;53.580;-1.666;2023-07-29T14:04:13;25.10;38.00
33988;DHT22;37428;53.580;-1.666;2023-07-29T14:07:15;25.00;39.90
33988;DHT22;37428;53.580;-1.666;2023-07-29T14:10:21;25.30;42.60
33988;DHT22;37428;53.580;-1.666;2023-07-29T14:13:23;25.40;39.00
33988;DHT22;37428;53.580;-1.666;2023-07-29T14:16:26;25.50;40.30
33988;DHT22;37428;53.580;-1.666;2023-07-29T14:19:29;25.40;39.90
33988;DHT22;37428;53.580;-1.666;2023-07-29T14:22:32;24.80;40.10
33988;DHT22;37428;53.580;-1.666;2023-07-29T14:25:34;24.30;41.80
33988;DHT22;37428;53.580;-1.666;2023-07-29T14:28:51;23.80;43.00
33988;DHT22;37428;53.580;-1.666;2023-07-29T14:31:55;23.40;44.90
33988;DHT22;37428;53.580;-1.666;2023-07-29T14:35:01;23.50;43.30
33988;DHT22;37428;53.580;-1.666;2023-07-29T14:38:04;23.70;43.80
33988;DHT22;37428;53.580;-1.666;2023-07-29T14:41:06;23.90;43.10
33988;DHT22;37428;53.580;-1.666;2023-07-29T14:44:08;24.10;42.10
33988;DHT22;37428;53.580;-1.666;2023-07-29T14:47:10;24.20;42.80
33988;DHT22;37428;53.580;-1.666;2023-07-29T14:50:14;24.40;41.50
33988;DHT22;37428;53.580;-1.666;2023-07-29T14:53:16;24.40;40.40
33988;DHT22;37428;53.580;-1.666;2023-07-29T14:56:19;24.30;40.80
33988;DHT22;37428;53.580;-1.666;2023-07-29T14:59:21;23.80;42.80
33988;DHT22;37428;53.580;-1.666;2023-07-29T15:02:27;23.30;43.20
33988;DHT22;37428;53.580;-1.666;2023-07-29T15:05:30;23.00;44.70
33988;DHT22;37428;53.580;-1.666;2023-07-29T15:08:33;23.00;44.80
33988;DHT22;37428;53.580;-1.666;2023-07-29T15:11:35;23.30;43.90
33988;DHT22;37428;53.580;-1.666;2023-07-29T15:15:10;23.70;43.20
33988;DHT22;37428;53.580;-1.666;2023-07-29T15:18:02;23.80;42.80
33988;DHT22;37428;53.580;-1.666;2023-07-29T15:21:05;24.00;43.20
33988;DHT22;37428;53.580;-1.666;2023-07-29T15:24:07;24.10;42.80
33988;DHT22;37428;53.580;-1.666;2023-07-29T15:27:09;23.90;41.90
33988;DHT22;37428;53.580;-1.666;2023-07-29T15:30:12;23.30;42.80
33988;DHT22;37428;53.580;-1.666;2023-07-29T15:33:30;23.10;44.00
33988;DHT22;37428;53.580;-1.666;2023-07-29T15:36:36;22.60;44.50
33988;DHT22;37428;53.580;-1.666;2023-07-29T15:39:40;22.20;44.70
33988;DHT22;37428;53.580;-1.666;2023-07-29T15:42:43;22.00;47.20
33988;DHT22;37428;53.580;-1.666;2023-07-29T15:45:45;21.90;47.10
33988;DHT22;37428;53.580;-1.666;2023-07-29T15:48:47;21.90;48.60
33988;DHT22;37428;53.580;-1.666;2023-07-29T15:51:53;21.80;48.70
33988;DHT22;37428;53.580;-1.666;2023-07-29T15:55:03;21.80;49.10
33988;DHT22;37428;53.580;-1.666;2023-07-29T15:58:05;21.80;48.20
33988;DHT22;37428;53.580;-1.666;2023-07-29T16:01:09;22.00;48.00
33988;DHT22;37428;53.580;-1.666;2023-07-29T16:04:12;22.10;47.40
33988;DHT22;37428;53.580;-1.666;2023-07-29T16:07:18;21.90;45.70
33988;DHT22;37428;53.580;-1.666;2023-07-29T16:10:21;22.00;46.30
33988;DHT22;37428;53.580;-1.666;2023-07-29T16:13:24;21.80;46.20
33988;DHT22;37428;53.580;-1.666;2023-07-29T16:16:29;21.70;46.90
33988;DHT22;37428;53.580;-1.666;2023-07-29T16:19:32;21.50;47.50
33988;DHT22;37428;53.580;-1.666;2023-07-29T16:22:35;21.70;47.80
33988;DHT22;37428;53.580;-1.666;2023-07-29T16:25:39;21.70;47.40
33988;DHT22;37428;53.580;-1.666;2023-07-29T16:28:41;21.60;48.00
33988;DHT22;37428;53.580;-1.666;2023-07-29T16:31:44;21.50;48.20
33988;DHT22;37428;53.580;-1.666;2023-07-29T16:34:46;21.10;48.20
33988;DHT22;37428;53.580;-1.666;2023-07-29T16:37:50;20.90;48.60
33988;DHT22;37428;53.580;-1.666;2023-07-29T16:40:52;20.80;49.10
33988;DHT22;37428;53.580;-1.666;2023-07-29T16:43:54;20.80;50.80
33988;DHT22;37428;53.580;-1.666;2023-07-29T16:47:02;20.90;50.20
33988;DHT22;37428;53.580;-1.666;2023-07-29T16:50:06;21.40;51.40
33988;DHT22;37428;53.580;-1.666;2023-07-29T16:53:12;21.50;50.00
33988;DHT22;37428;53.580;-1.666;2023-07-29T16:56:16;21.30;50.20
33988;DHT22;37428;53.580;-1.666;2023-07-29T16:59:21;21.30;50.80
33988;DHT22;37428;53.580;-1.666;2023-07-29T17:02:29;21.10;50.40
33988;DHT22;37428;53.580;-1.666;2023-07-29T17:05:33;20.90;50.10
33988;DHT22;37428;53.580;-1.666;2023-07-29T17:08:39;20.70;50.20
33988;DHT22;37428;53.580;-1.666;2023-07-29T17:11:41;20.60;50.60
33988;DHT22;37428;53.580;-1.666;2023-07-29T17:14:59;20.50;50.20
33988;DHT22;37428;53.580;-1.666;2023-07-29T17:18:02;20.50;50.70
33988;DHT22;37428;53.580;-1.666;2023-07-29T17:21:04;20.40;51.50
33988;DHT22;37428;53.580;-1.666;2023-07-29T17:24:08;20.30;50.70
33988;DHT22;37428;53.580;-1.666;2023-07-29T17:27:10;20.30;50.60
33988;DHT22;37428;53.580;-1.666;2023-07-29T17:30:18;20.30;50.60
33988;DHT22;37428;53.580;-1.666;2023-07-29T17:33:20;20.20;50.30
33988;DHT22;37428;53.580;-1.666;2023-07-29T17:36:24;20.30;52.10
33988;DHT22;37428;53.580;-1.666;2023-07-29T17:39:27;20.30;51.70
33988;DHT22;37428;53.580;-1.666;2023-07-29T17:42:30;20.30;51.10
33988;DHT22;37428;53.580;-1.666;2023-07-29T17:45:32;20.30;51.30
33988;DHT22;37428;53.580;-1.666;2023-07-29T17:48:34;20.30;51.70
33988;DHT22;37428;53.580;-1.666;2023-07-29T17:51:36;20.20;52.30
33988;DHT22;37428;53.580;-1.666;2023-07-29T17:54:40;20.00;52.30
33988;DHT22;37428;53.580;-1.666;2023-07-29T17:57:56;20.00;53.10
33988;DHT22;37428;53.580;-1.666;2023-07-29T18:00:59;20.00;53.40
33988;DHT22;37428;53.580;-1.666;2023-07-29T18:04:01;19.90;53.30
33988;DHT22;37428;53.580;-1.666;2023-07-29T18:07:04;19.90;53.20
33988;DHT22;37428;53.580;-1.666;2023-07-29T18:10:09;19.90;53.80
33988;DHT22;37428;53.580;-1.666;2023-07-29T18:13:11;19.80;54.10
33988;DHT22;37428;53.580;-1.666;2023-07-29T18:16:13;19.70;54.20
33988;DHT22;37428;53.580;-1.666;2023-07-29T18:19:20;19.60;54.80
33988;DHT22;37428;53.580;-1.666;2023-07-29T18:22:25;19.50;55.00
33988;DHT22;37428;53.580;-1.666;2023-07-29T18:25:32;19.30;55.40
33988;DHT22;37428;53.580;-1.666;2023-07-29T18:28:42;19.20;55.80
33988;DHT22;37428;53.580;-1.666;2023-07-29T18:31:44;19.10;55.60
33988;DHT22;37428;53.580;-1.666;2023-07-29T18:34:54;19.10;55.40
33988;DHT22;37428;53.580;-1.666;2023-07-29T18:38:00;19.00;55.00
33988;DHT22;37428;53.580;-1.666;2023-07-29T18:41:04;18.90;55.60
33988;DHT22;37428;53.580;-1.666;2023-07-29T18:44:30;18.80;56.60
33988;DHT22;37428;53.580;-1.666;2023-07-29T18:47:34;18.80;56.40
33988;DHT22;37428;53.580;-1.666;2023-07-29T18:50:36;18.80;57.30
33988;DHT22;37428;53.580;-1.666;2023-07-29T18:53:38;18.70;57.20
33988;DHT22;37428;53.580;-1.666;2023-07-29T18:56:44;18.70;57.90
33988;DHT22;37428;53.580;-1.666;2023-07-29T18:59:46;18.70;57.60
33988;DHT22;37428;53.580;-1.666;2023-07-29T19:02:48;18.60;57.30
33988;DHT22;37428;53.580;-1.666;2023-07-29T19:05:54;18.50;57.60
33988;DHT22;37428;53.580;-1.666;2023-07-29T19:08:58;18.40;57.90
33988;DHT22;37428;53.580;-1.666;2023-07-29T19:12:02;18.30;58.10
33988;DHT22;37428;53.580;-1.666;2023-07-29T19:15:06;18.20;58.80
33988;DHT22;37428;53.580;-1.666;2023-07-29T19:18:10;18.20;59.20
33988;DHT22;37428;53.580;-1.666;2023-07-29T19:21:13;18.10;59.50
33988;DHT22;37428;53.580;-1.666;2023-07-29T19:24:16;18.00;59.50
33988;DHT22;37428;53.580;-1.666;2023-07-29T19:27:20;18.00;59.80
33988;DHT22;37428;53.580;-1.666;2023-07-29T19:30:23;18.00;60.30
33988;DHT22;37428;53.580;-1.666;2023-07-29T19:33:25;17.90;60.70
33988;DHT22;37428;53.580;-1.666;2023-07-29T19:36:29;18.00;61.10
33988;DHT22;37428;53.580;-1.666;2023-07-29T19:39:32;17.90;61.00